Latest Weather Observations for Legendre Island

IDW60801

Issued at 5:12 pm WST Saturday 3 December 2022 (issued every 10 minutes, with the page automatically refreshed every 10 minutes)

About weather observations | Map of weather stations | Latest weather observations for WA | Other Formats
Station Details ID: 004095 Name: LEGENDRE ISLAND Lat: -20.36 Lon: 116.84 Height: 29.0 m
Data from the previous 72 hours. | See also: Recent months at Legendre Island
Date/Time
WST
Temp
°C
App
Temp
°C
Dew
Point
°C
Rel
Hum
%
Delta-T
°C
Wind Press
QNH
hPa
Press
MSL
hPa
Rain since
9am
mm
Dir  Spd
km/h
Gust
km/h
Spd
kts
Gust
kts
03/05:00pm 28.2 26.4 22.9 73 3.6 W 37 44 20 24 1005.6 1005.4 -
03/04:30pm 28.2 26.9 23.1 74 3.5 W 35 43 19 23 1005.6 1005.4 -
03/04:00pm 28.3 27.0 23.2 74 3.5 W 35 39 19 21 1005.9 1005.7 -
03/03:30pm 29.0 27.6 23.0 70 4.1 W 35 43 19 23 1005.9 1005.7 -
03/03:00pm 28.9 27.6 23.1 71 4.0 W 35 43 19 23 1006.1 1005.9 -
03/02:30pm 29.3 27.8 22.8 68 4.4 W 35 41 19 22 1006.4 1006.2 -
03/02:00pm 29.2 28.2 22.7 68 4.4 W 32 37 17 20 1006.8 1006.6 -
03/01:30pm 29.4 29.4 23.1 69 4.3 W 28 33 15 18 1007.0 1006.8 -
03/01:00pm 29.9 29.9 23.1 67 4.7 W 28 32 15 17 1007.2 1007.0 -
03/12:30pm 30.1 30.1 23.0 65 4.9 W 28 33 15 18 1007.7 1007.5 -
03/12:00pm 29.3 28.9 23.0 69 4.3 W 30 35 16 19 1007.8 1007.6 -
03/11:30am 29.6 29.4 22.8 67 4.6 W 28 35 15 19 1008.1 1007.9 -
03/11:00am 29.7 29.2 22.9 67 4.7 WSW 30 33 16 18 1008.4 1008.2 -
03/10:30am 29.9 29.8 23.6 69 4.4 WSW 30 33 16 18 1008.7 1008.5 -
03/10:00am 29.8 30.0 23.5 69 4.3 WSW 28 32 15 17 1008.8 1008.6 -
03/09:30am 29.1 29.2 23.3 71 4.0 WSW 28 32 15 17 1008.9 1008.7 -
03/09:00am 28.7 28.7 23.1 71 3.8 WSW 28 32 15 17 1009.0 1008.8 -
03/08:30am 28.5 28.6 23.2 73 3.6 WSW 28 33 15 18 1009.0 1008.8 -
03/08:00am 28.0 27.8 23.4 76 3.2 WSW 30 33 16 18 1008.9 1008.7 -
03/07:30am 27.6 28.2 23.4 78 2.9 WSW 26 30 14 16 1008.5 1008.3 -
03/07:00am 26.8 27.4 23.5 82 2.3 WSW 26 30 14 16 1008.3 1008.1 -
03/06:30am 26.2 26.4 23.5 85 1.8 WSW 28 32 15 17 1008.0 1007.8 -
03/06:00am 25.7 26.0 23.6 88 1.4 WSW 28 32 15 17 1007.7 1007.5 -
03/05:30am 25.6 25.8 23.5 88 1.4 WSW 28 32 15 17 1007.3 1007.1 -
03/05:00am 25.5 25.6 23.2 87 1.6 WSW 28 32 15 17 1007.0 1006.8 -
03/04:30am 25.6 26.5 23.3 87 1.6 WSW 24 28 13 15 1006.9 1006.7 -
03/04:00am 25.8 26.7 23.3 86 1.7 WSW 24 28 13 15 1006.8 1006.6 -
03/03:30am 26.0 27.1 23.1 84 2.0 WSW 22 26 12 14 1006.8 1006.6 -
03/03:00am 26.1 27.1 22.8 82 2.2 WSW 22 26 12 14 1006.6 1006.4 -
03/02:30am 26.4 26.5 22.5 79 2.6 SW 26 32 14 17 1006.5 1006.3 -
03/02:00am 26.5 26.3 22.8 80 2.5 SW 28 33 15 18 1006.5 1006.3 -
03/01:30am 26.3 25.1 22.6 80 2.5 SW 33 37 18 20 1006.7 1006.5 -
03/01:00am 26.2 24.5 22.5 80 2.5 SW 35 43 19 23 1006.6 1006.4 -
03/12:30am 26.1 24.8 22.4 80 2.5 SW 33 41 18 22 1006.8 1006.6 -
03/12:00am 26.0 24.5 22.7 82 2.2 WSW 35 43 19 23 1007.0 1006.8 -
 
Date/Time
WST
Temp
°C
App
Temp
°C
Dew
Point
°C
Rel
Hum
%
Delta-T
°C
Wind Press
QNH
hPa
Press
MSL
hPa
Rain since
9am
mm
Dir  Spd
km/h
Gust
km/h
Spd
kts
Gust
kts
02/11:30pm 26.1 24.5 22.6 81 2.4 WSW 35 43 19 23 1007.1 1006.9 -
02/11:00pm 26.1 24.8 22.4 80 2.5 WSW 33 39 18 21 1007.5 1007.3 -
02/10:30pm 25.9 24.8 22.4 81 2.4 WSW 32 37 17 20 1007.7 1007.5 -
02/10:00pm 26.0 25.5 22.9 83 2.1 W 30 37 16 20 1007.7 1007.5 -
02/09:30pm 25.9 25.0 22.8 83 2.1 W 32 37 17 20 1007.5 1007.3 -
02/09:00pm 26.1 25.5 22.6 81 2.4 WSW 30 35 16 19 1007.2 1007.0 -
02/08:30pm 26.3 25.3 22.6 80 2.5 WSW 32 39 17 21 1007.0 1006.8 -
02/08:00pm 26.4 25.3 22.5 79 2.6 WSW 32 37 17 20 1006.8 1006.6 -
02/07:30pm 26.5 25.7 22.3 78 2.8 WSW 30 35 16 19 1006.3 1006.1 -
02/07:00pm 26.5 25.2 22.1 77 3.0 W 32 41 17 22 1005.9 1005.7 -
02/06:30pm 26.8 25.4 22.0 75 3.2 W 32 39 17 21 1005.4 1005.2 -
02/06:00pm 27.2 26.0 22.2 74 3.4 W 32 37 17 20 1005.0 1004.8 -
02/05:30pm 27.6 26.1 22.1 72 3.7 W 33 39 18 21 1004.8 1004.6 -
02/05:00pm 28.0 26.1 22.7 73 3.6 W 37 43 20 23 1004.4 1004.2 -
02/04:30pm 28.2 27.3 22.9 73 3.6 W 32 39 17 21 1004.4 1004.2 -
02/04:00pm 28.6 27.8 23.3 73 3.6 W 33 41 18 22 1004.5 1004.3 -
02/03:30pm 28.5 27.7 23.4 74 3.5 W 33 39 18 21 1004.4 1004.2 -
02/03:00pm 29.3 29.1 24.0 73 3.7 W 32 37 17 20 1004.7 1004.5 -
02/02:30pm 29.3 28.9 24.0 73 3.7 W 33 39 18 21 1004.7 1004.5 -
02/02:00pm 29.2 28.3 23.9 73 3.7 W 35 41 19 22 1004.8 1004.6 -
02/01:30pm 29.2 28.7 23.6 72 3.9 W 32 37 17 20 1005.0 1004.8 -
02/01:00pm 29.4 28.5 23.1 69 4.3 W 33 43 18 23 1005.1 1004.9 -
02/12:30pm 29.7 29.1 23.4 69 4.3 W 32 35 17 19 1005.5 1005.3 -
02/12:00pm 29.2 29.1 22.9 69 4.3 W 28 33 15 18 1005.9 1005.7 -
02/11:30am 29.7 29.0 23.2 68 4.5 WSW 32 35 17 19 1005.9 1005.7 -
02/11:00am 29.6 29.2 23.1 68 4.5 WSW 30 35 16 19 1006.1 1005.9 -
02/10:30am 29.5 29.1 23.0 68 4.4 WSW 30 35 16 19 1006.5 1006.3 -
02/10:00am 29.1 28.3 23.1 70 4.1 WSW 32 35 17 19 1006.6 1006.4 -
02/09:30am 28.9 28.3 23.3 72 3.8 WSW 32 37 17 20 1006.8 1006.6 -
02/09:00am 29.1 29.0 23.5 72 3.9 WSW 30 35 16 19 1006.8 1006.6 -
02/08:30am 28.1 28.0 23.5 76 3.2 WSW 30 33 16 18 1006.8 1006.6 -
02/08:00am 27.6 28.3 23.6 79 2.8 WSW 26 32 14 17 1006.8 1006.6 -
02/07:30am 27.3 28.3 24.2 83 2.1 WSW 26 30 14 16 1006.7 1006.5 -
02/07:00am 26.7 27.7 24.2 86 1.7 WSW 26 30 14 16 1006.3 1006.1 -
02/06:30am 26.2 27.2 24.1 88 1.4 WSW 26 30 14 16 1006.0 1005.8 -
02/06:00am 26.1 27.4 24.1 89 1.4 WSW 24 28 13 15 1005.7 1005.5 -
02/05:30am 25.9 26.7 23.8 88 1.4 WSW 26 30 14 16 1005.5 1005.3 -
02/05:00am 25.8 25.7 23.5 87 1.6 SW 30 33 16 18 1005.1 1004.9 -
02/04:30am 25.8 25.4 23.1 85 1.8 SW 30 33 16 18 1004.8 1004.6 -
02/04:00am 25.7 25.5 22.8 84 2.0 SW 28 32 15 17 1004.7 1004.5 -
02/03:30am 25.6 25.8 22.7 84 2.0 WSW 26 30 14 16 1004.5 1004.3 -
02/03:00am 25.9 26.0 22.6 82 2.2 WSW 26 32 14 17 1004.5 1004.3 -
02/02:30am 26.0 25.3 22.5 81 2.4 WSW 30 35 16 19 1004.5 1004.3 -
02/02:00am 26.0 24.9 22.5 81 2.4 SW 32 37 17 20 1004.5 1004.3 -
02/01:30am 26.2 25.7 22.9 82 2.2 SW 30 37 16 20 1004.9 1004.7 -
02/01:00am 26.2 25.3 22.9 82 2.2 SW 32 35 17 19 1005.0 1004.8 -
02/12:30am 26.1 25.2 22.8 82 2.2 SW 32 37 17 20 1005.2 1005.0 -
02/12:00am 26.1 25.1 22.6 81 2.4 SW 32 37 17 20 1005.5 1005.3 -
 
Date/Time
WST
Temp
°C
App
Temp
°C
Dew
Point
°C
Rel
Hum
%
Delta-T
°C
Wind Press
QNH
hPa
Press
MSL
hPa
Rain since
9am
mm
Dir  Spd
km/h
Gust
km/h
Spd
kts
Gust
kts
01/11:30pm 26.1 25.0 22.4 80 2.5 WSW 32 39 17 21 1005.7 1005.5 -
01/11:00pm 26.1 25.5 22.6 81 2.4 WSW 30 37 16 20 1005.9 1005.7 -
01/10:30pm 26.1 25.0 22.4 80 2.5 WSW 32 35 17 19 1005.9 1005.7 -
01/10:00pm 26.2 25.5 22.5 80 2.5 WSW 30 35 16 19 1006.0 1005.8 -
01/09:30pm 26.2 26.0 22.7 81 2.4 WSW 28 35 15 19 1005.9 1005.7 -
01/09:00pm 26.3 26.1 22.8 81 2.4 WSW 28 33 15 18 1005.7 1005.5 -
01/08:30pm 26.2 25.9 22.5 80 2.5 WSW 28 37 15 20 1005.5 1005.3 -
01/08:00pm 26.4 26.2 22.7 80 2.5 WSW 28 35 15 19 1005.3 1005.1 -
01/07:30pm 26.3 25.8 22.8 81 2.4 W 30 35 16 19 1005.1 1004.9 -
01/07:00pm 26.5 26.0 22.8 80 2.5 W 30 35 16 19 1004.8 1004.6 -
01/06:30pm 26.9 26.4 22.9 79 2.7 W 30 35 16 19 1004.4 1004.2 -
01/06:00pm 27.6 27.4 22.8 75 3.3 W 28 35 15 19 1004.2 1004.0 -
01/05:30pm 27.8 27.4 23.0 75 3.3 W 30 37 16 20 1003.9 1003.7 -
01/05:00pm 28.0 27.8 23.4 76 3.2 W 30 37 16 20 1004.0 1003.8 -
01/04:30pm 29.0 29.2 23.4 72 3.8 W 28 37 15 20 1004.0 1003.8 -
01/04:00pm 29.1 28.6 23.5 72 3.9 WNW 32 37 17 20 1004.1 1003.9 -
01/03:30pm 29.2 29.1 23.6 72 3.9 W 30 35 16 19 1004.3 1004.1 -
01/03:00pm 29.6 29.7 24.0 72 3.9 W 30 35 16 19 1004.7 1004.5 -
01/02:30pm 29.2 28.6 23.4 71 4.0 W 32 37 17 20 1004.9 1004.7 -
01/02:00pm 29.6 28.8 23.1 68 4.5 WNW 32 37 17 20 1005.1 1004.9 -
01/01:30pm 30.4 29.8 23.3 66 4.9 W 32 37 17 20 1005.4 1005.2 -
01/01:00pm 29.8 29.0 23.0 67 4.7 WNW 32 37 17 20 1005.6 1005.4 -
01/12:30pm 30.5 30.7 23.4 66 4.9 W 28 33 15 18 1006.0 1005.8 -
01/12:00pm 29.9 29.5 22.3 63 5.2 W 28 32 15 17 1006.2 1006.0 -
01/11:30am 29.8 29.0 21.7 61 5.5 W 28 33 15 18 1006.5 1006.3 -
01/11:00am 29.7 29.1 21.9 63 5.3 W 28 35 15 19 1006.8 1006.6 -
01/10:30am 29.5 29.8 23.0 68 4.4 W 26 30 14 16 1007.1 1006.9 -
01/10:00am 29.5 28.9 22.0 64 5.1 W 28 32 15 17 1007.5 1007.3 -
01/09:30am 29.0 29.4 23.2 71 4.0 W 26 30 14 16 1007.6 1007.4 -
01/09:00am 29.2 30.6 22.9 69 4.3 WSW 20 24 11 13 1007.7 1007.5 -
01/08:30am 28.8 30.5 24.1 76 3.3 SW 22 26 12 14 1007.5 1007.3 -
01/08:00am 28.0 29.7 24.0 79 2.8 SW 22 24 12 13 1007.4 1007.2 -
01/07:30am 27.7 29.4 24.1 81 2.5 SW 22 26 12 14 1007.3 1007.2 -
01/07:00am 27.0 28.5 23.7 82 2.3 WSW 22 26 12 14 1007.1 1006.9 -
01/06:30am 26.5 28.3 23.6 84 2.0 WSW 20 22 11 12 1007.0 1006.8 -
01/06:00am 25.9 27.6 23.4 86 1.7 WSW 20 24 11 13 1006.9 1006.7 -
01/05:30am 25.6 27.2 23.3 87 1.6 WSW 20 22 11 12 1006.5 1006.3 -
01/05:00am 25.8 27.5 23.1 85 1.8 W 19 20 10 11 1006.4 1006.2 -
01/04:30am 26.3 28.5 23.2 83 2.1 WSW 17 20 9 11 1006.5 1006.3 -
01/04:00am 26.4 26.4 23.1 82 2.3 SW 28 33 15 18 1005.8 1005.6 -
01/03:30am 26.3 26.5 22.8 81 2.4 SW 26 32 14 17 1005.7 1005.5 -
01/03:00am 26.1 27.2 23.0 83 2.1 SW 22 28 12 15 1006.1 1005.9 -
01/02:30am 26.1 26.8 23.0 83 2.1 WSW 24 32 13 17 1006.2 1006.0 -
01/02:00am 26.0 25.5 22.9 83 2.1 SW 30 33 16 18 1005.9 1005.7 -
01/01:30am 25.6 25.1 22.9 85 1.8 SW 30 35 16 19 1006.0 1005.8 -
01/01:00am 25.6 25.3 23.3 87 1.6 SW 30 35 16 19 1006.3 1006.1 -
01/12:30am 25.6 25.6 23.7 89 1.3 WSW 30 33 16 18 1006.8 1006.6 -
01/12:00am 25.7 26.1 23.7 89 1.4 WSW 28 33 15 18 1007.1 1006.9 -
 
Date/Time
WST
Temp
°C
App
Temp
°C
Dew
Point
°C
Rel
Hum
%
Delta-T
°C
Wind Press
QNH
hPa
Press
MSL
hPa
Rain since
9am
mm
Dir  Spd
km/h
Gust
km/h
Spd
kts
Gust
kts
30/11:30pm 25.7 26.4 23.7 89 1.4 WSW 26 32 14 17 1007.3 1007.2 -
30/11:00pm 25.8 26.5 23.7 88 1.4 WSW 26 30 14 16 1007.6 1007.5 -
30/10:30pm 25.9 27.0 23.6 87 1.6 WSW 24 30 13 16 1007.7 1007.6 -
30/10:00pm 25.8 27.2 23.5 87 1.6 WSW 22 28 12 15 1007.7 1007.6 -
30/09:30pm 25.8 26.9 23.7 88 1.4 WSW 24 30 13 16 1007.6 1007.5 -
30/09:00pm 25.9 26.3 23.8 88 1.4 WSW 28 33 15 18 1007.2 1007.1 -
30/08:30pm 26.0 26.5 23.9 88 1.4 WSW 28 32 15 17 1006.9 1006.7 -
30/08:00pm 26.0 27.2 23.9 88 1.4 W 24 28 13 15 1006.7 1006.5 -
30/07:30pm 25.9 27.5 23.8 88 1.4 W 22 28 12 15 1006.5 1006.3 -
30/07:00pm 26.1 26.5 23.8 87 1.6 W 28 33 15 18 1006.0 1005.8 -
30/06:30pm 26.5 26.9 23.8 85 1.9 W 28 35 15 19 1005.7 1005.5 -
30/06:00pm 27.0 27.9 23.9 83 2.1 W 26 30 14 16 1005.5 1005.3 -
30/05:30pm 27.2 27.9 23.7 81 2.4 W 26 32 14 17 1005.3 1005.1 -

Other formats

Comma delimited format used in spreadsheet applications
http://www.bom.gov.au/fwo/IDW60801/IDW60801.94307.axf

JavaScript Object Notation format (JSON) in row-major order
http://www.bom.gov.au/fwo/IDW60801/IDW60801.94307.json

Data quality

Most of these data are generated automatically and are frequently updated. Quality checks on data are not normally performed. It is possible for incorrect values to appear. Refer to information at About Latest Weather Observations and please check the disclaimer before using these data.